sensor_id;sensor_type;location;lat;lon;timestamp;temperature;humidity
32502;DHT22;18952;52.516;13.460;2023-05-07T00:00:00;9.40;99.90
32502;DHT22;18952;52.516;13.460;2023-05-07T00:02:26;9.40;99.90
32502;DHT22;18952;52.516;13.460;2023-05-07T00:04:53;9.30;99.90
32502;DHT22;18952;52.516;13.460;2023-05-07T00:07:20;9.40;99.90
32502;DHT22;18952;52.516;13.460;2023-05-07T00:09:48;9.30;99.90
32502;DHT22;18952;52.516;13.460;2023-05-07T00:12:15;9.30;99.90
32502;DHT22;18952;52.516;13.460;2023-05-07T00:14:43;9.30;99.90
32502;DHT22;18952;52.516;13.460;2023-05-07T00:17:09;9.30;99.90
32502;DHT22;18952;52.516;13.460;2023-05-07T00:19:37;9.30;99.90
32502;DHT22;18952;52.516;13.460;2023-05-07T00:22:04;9.30;99.90
32502;DHT22;18952;52.516;13.460;2023-05-07T00:24:31;9.30;99.90
32502;DHT22;18952;52.516;13.460;2023-05-07T00:27:00;9.40;99.90
32502;DHT22;18952;52.516;13.460;2023-05-07T00:29:29;9.30;99.90
32502;DHT22;18952;52.516;13.460;2023-05-07T00:31:58;9.30;99.90
32502;DHT22;18952;52.516;13.460;2023-05-07T00:34:24;9.30;99.90
32502;DHT22;18952;52.516;13.460;2023-05-07T00:36:51;9.30;99.90
32502;DHT22;18952;52.516;13.460;2023-05-07T00:39:18;9.30;99.90
32502;DHT22;18952;52.516;13.460;2023-05-07T00:41:45;9.30;99.90
32502;DHT22;18952;52.516;13.460;2023-05-07T00:44:12;9.20;99.90
32502;DHT22;18952;52.516;13.460;2023-05-07T00:46:38;9.20;99.90
32502;DHT22;18952;52.516;13.460;2023-05-07T00:49:05;9.10;99.90
32502;DHT22;18952;52.516;13.460;2023-05-07T00:51:33;9.10;99.90
32502;DHT22;18952;52.516;13.460;2023-05-07T00:54:01;9.10;99.90
32502;DHT22;18952;52.516;13.460;2023-05-07T00:56:28;9.10;99.90
32502;DHT22;18952;52.516;13.460;2023-05-07T00:58:55;9.10;99.90
32502;DHT22;18952;52.516;13.460;2023-05-07T01:01:22;9.10;99.90
32502;DHT22;18952;52.516;13.460;2023-05-07T01:03:50;9.10;99.90
32502;DHT22;18952;52.516;13.460;2023-05-07T01:06:18;9.10;99.90
32502;DHT22;18952;52.516;13.460;2023-05-07T01:08:47;9.10;99.90
32502;DHT22;18952;52.516;13.460;2023-05-07T01:11:16;9.20;99.90
32502;DHT22;18952;52.516;13.460;2023-05-07T01:13:53;9.10;99.90
32502;DHT22;18952;52.516;13.460;2023-05-07T01:16:24;9.20;99.90
32502;DHT22;18952;52.516;13.460;2023-05-07T01:18:53;9.20;99.90
32502;DHT22;18952;52.516;13.460;2023-05-07T01:21:25;9.20;99.90
32502;DHT22;18952;52.516;13.460;2023-05-07T01:23:54;9.20;99.90
32502;DHT22;18952;52.516;13.460;2023-05-07T01:26:22;9.20;99.90
32502;DHT22;18952;52.516;13.460;2023-05-07T01:28:49;9.20;99.90
32502;DHT22;18952;52.516;13.460;2023-05-07T01:31:16;9.20;99.90
32502;DHT22;18952;52.516;13.460;2023-05-07T01:33:45;9.20;99.90
32502;DHT22;18952;52.516;13.460;2023-05-07T01:36:13;9.20;99.90
32502;DHT22;18952;52.516;13.460;2023-05-07T01:38:42;9.20;99.90
32502;DHT22;18952;52.516;13.460;2023-05-07T01:41:08;9.20;99.90
32502;DHT22;18952;52.516;13.460;2023-05-07T01:43:35;9.20;99.90
32502;DHT22;18952;52.516;13.460;2023-05-07T01:46:02;9.20;99.90
32502;DHT22;18952;52.516;13.460;2023-05-07T01:48:31;9.20;99.90
32502;DHT22;18952;52.516;13.460;2023-05-07T01:50:59;9.20;99.90
32502;DHT22;18952;52.516;13.460;2023-05-07T01:53:27;9.30;99.90
32502;DHT22;18952;52.516;13.460;2023-05-07T01:55:54;9.20;99.90
32502;DHT22;18952;52.516;13.460;2023-05-07T01:58:21;9.20;99.90
32502;DHT22;18952;52.516;13.460;2023-05-07T02:00:47;9.20;99.90
32502;DHT22;18952;52.516;13.460;2023-05-07T02:03:14;9.20;99.90
32502;DHT22;18952;52.516;13.460;2023-05-07T02:05:41;9.20;99.90
32502;DHT22;18952;52.516;13.460;2023-05-07T02:08:08;9.20;99.90
32502;DHT22;18952;52.516;13.460;2023-05-07T02:10:34;9.20;99.90
32502;DHT22;18952;52.516;13.460;2023-05-07T02:13:01;9.20;99.90
32502;DHT22;18952;52.516;13.460;2023-05-07T02:15:29;9.20;99.90
32502;DHT22;18952;52.516;13.460;2023-05-07T02:18:03;9.20;99.90
32502;DHT22;18952;52.516;13.460;2023-05-07T02:20:31;9.20;99.90
32502;DHT22;18952;52.516;13.460;2023-05-07T02:22:58;9.20;99.90
32502;DHT22;18952;52.516;13.460;2023-05-07T02:25:25;9.20;99.90
32502;DHT22;18952;52.516;13.460;2023-05-07T02:27:51;9.20;99.90
32502;DHT22;18952;52.516;13.460;2023-05-07T02:30:18;9.20;99.90
32502;DHT22;18952;52.516;13.460;2023-05-07T02:32:45;9.20;99.90
32502;DHT22;18952;52.516;13.460;2023-05-07T02:35:12;9.20;99.90
32502;DHT22;18952;52.516;13.460;2023-05-07T02:37:38;9.20;99.90
32502;DHT22;18952;52.516;13.460;2023-05-07T02:40:06;9.20;99.90
32502;DHT22;18952;52.516;13.460;2023-05-07T02:42:32;9.10;99.90
32502;DHT22;18952;52.516;13.460;2023-05-07T02:44:59;9.20;99.90
32502;DHT22;18952;52.516;13.460;2023-05-07T02:47:26;9.20;99.90
32502;DHT22;18952;52.516;13.460;2023-05-07T02:49:54;9.20;99.90
32502;DHT22;18952;52.516;13.460;2023-05-07T02:52:21;9.20;99.90
32502;DHT22;18952;52.516;13.460;2023-05-07T02:54:48;9.20;99.90
32502;DHT22;18952;52.516;13.460;2023-05-07T02:57:16;9.20;99.90
32502;DHT22;18952;52.516;13.460;2023-05-07T02:59:43;9.20;99.90
32502;DHT22;18952;52.516;13.460;2023-05-07T03:02:11;9.20;99.90
32502;DHT22;18952;52.516;13.460;2023-05-07T03:04:40;9.20;99.90
32502;DHT22;18952;52.516;13.460;2023-05-07T03:07:09;9.20;99.90
32502;DHT22;18952;52.516;13.460;2023-05-07T03:09:35;9.20;99.90
32502;DHT22;18952;52.516;13.460;2023-05-07T03:12:02;9.30;99.90
32502;DHT22;18952;52.516;13.460;2023-05-07T03:14:29;9.30;99.90
32502;DHT22;18952;52.516;13.460;2023-05-07T03:16:56;9.20;99.90
32502;DHT22;18952;52.516;13.460;2023-05-07T03:19:22;9.20;99.90
32502;DHT22;18952;52.516;13.460;2023-05-07T03:21:49;9.20;99.90
32502;DHT22;18952;52.516;13.460;2023-05-07T03:24:16;9.20;99.90
32502;DHT22;18952;52.516;13.460;2023-05-07T03:26:47;9.20;99.90
32502;DHT22;18952;52.516;13.460;2023-05-07T03:29:27;9.20;99.90
32502;DHT22;18952;52.516;13.460;2023-05-07T03:31:54;9.20;99.90
32502;DHT22;18952;52.516;13.460;2023-05-07T03:34:20;9.20;99.90
32502;DHT22;18952;52.516;13.460;2023-05-07T03:36:50;9.20;99.90
32502;DHT22;18952;52.516;13.460;2023-05-07T03:39:17;9.20;99.90
32502;DHT22;18952;52.516;13.460;2023-05-07T03:41:44;9.20;99.90
32502;DHT22;18952;52.516;13.460;2023-05-07T03:44:11;9.20;99.90
32502;DHT22;18952;52.516;13.460;2023-05-07T03:46:37;9.20;99.90
32502;DHT22;18952;52.516;13.460;2023-05-07T03:49:04;9.20;99.90
32502;DHT22;18952;52.516;13.460;2023-05-07T03:51:32;9.10;99.90
32502;DHT22;18952;52.516;13.460;2023-05-07T03:53:59;9.20;99.90
32502;DHT22;18952;52.516;13.460;2023-05-07T03:56:27;9.10;99.90
32502;DHT22;18952;52.516;13.460;2023-05-07T03:58:55;9.10;99.90
32502;DHT22;18952;52.516;13.460;2023-05-07T04:01:22;9.00;99.90
32502;DHT22;18952;52.516;13.460;2023-05-07T04:03:49;9.10;99.90
32502;DHT22;18952;52.516;13.460;2023-05-07T04:06:16;9.10;99.90
32502;DHT22;18952;52.516;13.460;2023-05-07T04:08:43;9.10;99.90
32502;DHT22;18952;52.516;13.460;2023-05-07T04:11:10;9.10;99.90
32502;DHT22;18952;52.516;13.460;2023-05-07T04:13:37;9.10;99.90
32502;DHT22;18952;52.516;13.460;2023-05-07T04:16:06;9.10;99.90
32502;DHT22;18952;52.516;13.460;2023-05-07T04:18:33;9.10;99.90
32502;DHT22;18952;52.516;13.460;2023-05-07T04:20:59;9.10;99.90
32502;DHT22;18952;52.516;13.460;2023-05-07T04:23:27;9.10;99.90
32502;DHT22;18952;52.516;13.460;2023-05-07T04:25:54;9.10;99.90
32502;DHT22;18952;52.516;13.460;2023-05-07T04:28:21;9.10;99.90
32502;DHT22;18952;52.516;13.460;2023-05-07T04:30:48;9.20;99.90
32502;DHT22;18952;52.516;13.460;2023-05-07T04:33:15;9.20;99.90
32502;DHT22;18952;52.516;13.460;2023-05-07T04:35:41;9.20;99.90
32502;DHT22;18952;52.516;13.460;2023-05-07T04:38:08;9.30;99.90
32502;DHT22;18952;52.516;13.460;2023-05-07T04:40:38;9.30;99.90
32502;DHT22;18952;52.516;13.460;2023-05-07T04:43:05;9.30;99.90
32502;DHT22;18952;52.516;13.460;2023-05-07T04:45:32;9.30;99.90
32502;DHT22;18952;52.516;13.460;2023-05-07T04:48:00;9.30;99.90
32502;DHT22;18952;52.516;13.460;2023-05-07T04:50:28;9.30;99.90
32502;DHT22;18952;52.516;13.460;2023-05-07T04:52:55;9.30;99.90
32502;DHT22;18952;52.516;13.460;2023-05-07T04:55:22;9.30;99.90
32502;DHT22;18952;52.516;13.460;2023-05-07T04:57:49;9.40;99.90
32502;DHT22;18952;52.516;13.460;2023-05-07T05:00:15;9.40;99.90
32502;DHT22;18952;52.516;13.460;2023-05-07T05:02:42;9.40;99.90
32502;DHT22;18952;52.516;13.460;2023-05-07T05:05:11;9.40;99.90
32502;DHT22;18952;52.516;13.460;2023-05-07T05:07:38;9.40;99.90
32502;DHT22;18952;52.516;13.460;2023-05-07T05:10:05;9.50;99.90
32502;DHT22;18952;52.516;13.460;2023-05-07T05:12:32;9.50;99.90
32502;DHT22;18952;52.516;13.460;2023-05-07T05:14:59;9.60;99.90
32502;DHT22;18952;52.516;13.460;2023-05-07T05:17:26;9.60;99.90
32502;DHT22;18952;52.516;13.460;2023-05-07T05:19:54;9.70;99.90
32502;DHT22;18952;52.516;13.460;2023-05-07T05:22:23;9.70;99.90
32502;DHT22;18952;52.516;13.460;2023-05-07T05:24:50;9.70;99.90
32502;DHT22;18952;52.516;13.460;2023-05-07T05:27:17;9.70;99.90
32502;DHT22;18952;52.516;13.460;2023-05-07T05:29:43;9.70;99.90
32502;DHT22;18952;52.516;13.460;2023-05-07T05:32:10;9.70;99.90
32502;DHT22;18952;52.516;13.460;2023-05-07T05:34:37;9.80;99.90
32502;DHT22;18952;52.516;13.460;2023-05-07T05:37:04;9.80;99.90
32502;DHT22;18952;52.516;13.460;2023-05-07T05:39:30;9.80;99.90
32502;DHT22;18952;52.516;13.460;2023-05-07T05:41:57;9.90;99.90
32502;DHT22;18952;52.516;13.460;2023-05-07T05:44:24;9.90;99.90
32502;DHT22;18952;52.516;13.460;2023-05-07T05:46:51;9.90;99.90
32502;DHT22;18952;52.516;13.460;2023-05-07T05:49:19;9.90;99.90
32502;DHT22;18952;52.516;13.460;2023-05-07T05:51:46;9.90;99.90
32502;DHT22;18952;52.516;13.460;2023-05-07T05:54:13;10.00;99.90
32502;DHT22;18952;52.516;13.460;2023-05-07T05:56:41;10.10;99.90
32502;DHT22;18952;52.516;13.460;2023-05-07T05:59:09;10.20;99.90
32502;DHT22;18952;52.516;13.460;2023-05-07T06:01:45;10.20;99.90
32502;DHT22;18952;52.516;13.460;2023-05-07T06:04:12;10.20;99.90
32502;DHT22;18952;52.516;13.460;2023-05-07T06:06:39;10.20;99.90
32502;DHT22;18952;52.516;13.460;2023-05-07T06:09:05;10.30;99.90
32502;DHT22;18952;52.516;13.460;2023-05-07T06:11:32;10.30;99.90
32502;DHT22;18952;52.516;13.460;2023-05-07T06:13:59;10.30;99.90
32502;DHT22;18952;52.516;13.460;2023-05-07T06:16:26;10.40;99.90
32502;DHT22;18952;52.516;13.460;2023-05-07T06:18:52;10.40;99.90
32502;DHT22;18952;52.516;13.460;2023-05-07T06:21:19;10.50;99.90
32502;DHT22;18952;52.516;13.460;2023-05-07T06:23:46;10.60;99.90
32502;DHT22;18952;52.516;13.460;2023-05-07T06:26:13;10.50;99.90
32502;DHT22;18952;52.516;13.460;2023-05-07T06:28:39;10.60;99.90
32502;DHT22;18952;52.516;13.460;2023-05-07T06:31:13;10.60;99.90
32502;DHT22;18952;52.516;13.460;2023-05-07T06:33:40;10.70;99.90
32502;DHT22;18952;52.516;13.460;2023-05-07T06:36:08;10.80;99.90
32502;DHT22;18952;52.516;13.460;2023-05-07T06:38:36;10.80;99.90
32502;DHT22;18952;52.516;13.460;2023-05-07T06:41:05;10.90;99.90
32502;DHT22;18952;52.516;13.460;2023-05-07T06:43:32;11.00;99.90
32502;DHT22;18952;52.516;13.460;2023-05-07T06:46:00;11.00;99.90
32502;DHT22;18952;52.516;13.460;2023-05-07T06:48:28;10.90;99.90
32502;DHT22;18952;52.516;13.460;2023-05-07T06:50:56;11.00;99.90
32502;DHT22;18952;52.516;13.460;2023-05-07T06:53:43;11.10;99.90
32502;DHT22;18952;52.516;13.460;2023-05-07T06:56:11;11.10;99.90
32502;DHT22;18952;52.516;13.460;2023-05-07T06:58:38;11.10;99.90
32502;DHT22;18952;52.516;13.460;2023-05-07T07:01:05;11.20;99.90
32502;DHT22;18952;52.516;13.460;2023-05-07T07:03:32;11.20;99.90
32502;DHT22;18952;52.516;13.460;2023-05-07T07:06:01;11.20;99.90
32502;DHT22;18952;52.516;13.460;2023-05-07T07:08:29;11.10;99.90
32502;DHT22;18952;52.516;13.460;2023-05-07T07:10:56;11.00;99.90
32502;DHT22;18952;52.516;13.460;2023-05-07T07:13:23;11.00;99.90
32502;DHT22;18952;52.516;13.460;2023-05-07T07:15:49;11.00;99.90
32502;DHT22;18952;52.516;13.460;2023-05-07T07:18:16;10.90;99.90
32502;DHT22;18952;52.516;13.460;2023-05-07T07:20:43;10.80;99.90
32502;DHT22;18952;52.516;13.460;2023-05-07T07:23:10;10.90;99.90
32502;DHT22;18952;52.516;13.460;2023-05-07T07:25:36;10.80;99.90
32502;DHT22;18952;52.516;13.460;2023-05-07T07:28:03;10.90;99.90
32502;DHT22;18952;52.516;13.460;2023-05-07T07:30:30;10.90;99.90
32502;DHT22;18952;52.516;13.460;2023-05-07T07:32:57;10.90;99.90
32502;DHT22;18952;52.516;13.460;2023-05-07T07:35:25;10.80;99.90
32502;DHT22;18952;52.516;13.460;2023-05-07T07:37:51;10.90;99.90
32502;DHT22;18952;52.516;13.460;2023-05-07T07:40:19;10.90;99.90
32502;DHT22;18952;52.516;13.460;2023-05-07T07:42:47;11.00;99.90
32502;DHT22;18952;52.516;13.460;2023-05-07T07:45:14;11.00;99.90
32502;DHT22;18952;52.516;13.460;2023-05-07T07:47:42;11.00;99.90
32502;DHT22;18952;52.516;13.460;2023-05-07T07:50:09;11.10;99.90
32502;DHT22;18952;52.516;13.460;2023-05-07T07:52:37;11.10;99.90
32502;DHT22;18952;52.516;13.460;2023-05-07T07:55:04;11.10;99.90
32502;DHT22;18952;52.516;13.460;2023-05-07T07:57:31;11.10;99.90
32502;DHT22;18952;52.516;13.460;2023-05-07T07:59:57;11.10;99.90
32502;DHT22;18952;52.516;13.460;2023-05-07T08:02:24;11.10;99.90
32502;DHT22;18952;52.516;13.460;2023-05-07T08:04:51;11.10;99.90
32502;DHT22;18952;52.516;13.460;2023-05-07T08:07:18;11.20;99.90
32502;DHT22;18952;52.516;13.460;2023-05-07T08:09:46;11.20;99.90
32502;DHT22;18952;52.516;13.460;2023-05-07T08:12:13;11.20;99.90
32502;DHT22;18952;52.516;13.460;2023-05-07T08:14:40;11.20;99.90
32502;DHT22;18952;52.516;13.460;2023-05-07T08:17:08;11.20;99.90
32502;DHT22;18952;52.516;13.460;2023-05-07T08:19:36;11.30;99.90
32502;DHT22;18952;52.516;13.460;2023-05-07T08:22:04;11.30;99.90
32502;DHT22;18952;52.516;13.460;2023-05-07T08:24:30;11.30;99.90
32502;DHT22;18952;52.516;13.460;2023-05-07T08:26:57;11.30;99.90
32502;DHT22;18952;52.516;13.460;2023-05-07T08:29:24;11.40;99.90
32502;DHT22;18952;52.516;13.460;2023-05-07T08:31:50;11.50;99.90
32502;DHT22;18952;52.516;13.460;2023-05-07T08:34:17;11.60;99.90
32502;DHT22;18952;52.516;13.460;2023-05-07T08:36:44;11.70;99.90
32502;DHT22;18952;52.516;13.460;2023-05-07T08:39:10;11.80;99.90
32502;DHT22;18952;52.516;13.460;2023-05-07T08:41:37;11.90;99.90
32502;DHT22;18952;52.516;13.460;2023-05-07T08:44:06;11.90;99.90
32502;DHT22;18952;52.516;13.460;2023-05-07T08:46:37;12.00;99.90
32502;DHT22;18952;52.516;13.460;2023-05-07T08:49:05;12.10;99.90
32502;DHT22;18952;52.516;13.460;2023-05-07T08:51:32;12.20;99.90
32502;DHT22;18952;52.516;13.460;2023-05-07T08:53:59;12.30;99.90
32502;DHT22;18952;52.516;13.460;2023-05-07T08:56:28;12.50;99.90
32502;DHT22;18952;52.516;13.460;2023-05-07T08:59:00;12.70;99.90
32502;DHT22;18952;52.516;13.460;2023-05-07T09:01:27;12.80;99.90
32502;DHT22;18952;52.516;13.460;2023-05-07T09:03:55;12.80;99.90
32502;DHT22;18952;52.516;13.460;2023-05-07T09:06:22;12.80;99.90
32502;DHT22;18952;52.516;13.460;2023-05-07T09:08:51;12.80;99.90
32502;DHT22;18952;52.516;13.460;2023-05-07T09:11:23;12.90;99.90
32502;DHT22;18952;52.516;13.460;2023-05-07T09:13:56;12.90;99.90
32502;DHT22;18952;52.516;13.460;2023-05-07T09:16:24;13.10;99.90
32502;DHT22;18952;52.516;13.460;2023-05-07T09:18:52;13.20;99.90
32502;DHT22;18952;52.516;13.460;2023-05-07T09:21:21;13.20;99.90
32502;DHT22;18952;52.516;13.460;2023-05-07T09:23:53;13.30;99.90
32502;DHT22;18952;52.516;13.460;2023-05-07T09:26:24;13.40;99.90
32502;DHT22;18952;52.516;13.460;2023-05-07T09:28:52;13.40;99.90
32502;DHT22;18952;52.516;13.460;2023-05-07T09:31:21;13.50;99.90
32502;DHT22;18952;52.516;13.460;2023-05-07T09:33:48;13.50;99.90
32502;DHT22;18952;52.516;13.460;2023-05-07T09:36:15;13.50;99.90
32502;DHT22;18952;52.516;13.460;2023-05-07T09:38:42;13.60;99.90
32502;DHT22;18952;52.516;13.460;2023-05-07T09:41:12;13.60;99.90
32502;DHT22;18952;52.516;13.460;2023-05-07T09:43:39;13.60;99.90
32502;DHT22;18952;52.516;13.460;2023-05-07T09:46:14;13.60;99.90
32502;DHT22;18952;52.516;13.460;2023-05-07T09:48:43;13.60;99.90
32502;DHT22;18952;52.516;13.460;2023-05-07T09:54:10;13.80;99.90
32502;DHT22;18952;52.516;13.460;2023-05-07T09:56:38;13.90;99.90
32502;DHT22;18952;52.516;13.460;2023-05-07T09:59:07;13.90;99.90
32502;DHT22;18952;52.516;13.460;2023-05-07T10:01:36;13.90;99.90
32502;DHT22;18952;52.516;13.460;2023-05-07T10:04:03;14.10;99.90
32502;DHT22;18952;52.516;13.460;2023-05-07T10:06:30;14.20;99.90
32502;DHT22;18952;52.516;13.460;2023-05-07T10:08:59;14.20;99.90
32502;DHT22;18952;52.516;13.460;2023-05-07T10:11:26;14.30;99.90
32502;DHT22;18952;52.516;13.460;2023-05-07T10:13:53;14.30;99.90
32502;DHT22;18952;52.516;13.460;2023-05-07T10:16:21;14.40;99.90
32502;DHT22;18952;52.516;13.460;2023-05-07T10:18:48;14.40;99.90
32502;DHT22;18952;52.516;13.460;2023-05-07T10:21:18;14.40;99.90
32502;DHT22;18952;52.516;13.460;2023-05-07T10:23:48;14.50;99.90
32502;DHT22;18952;52.516;13.460;2023-05-07T10:26:17;14.50;99.90
32502;DHT22;18952;52.516;13.460;2023-05-07T10:28:49;14.60;99.90
32502;DHT22;18952;52.516;13.460;2023-05-07T10:34:14;14.80;99.90
32502;DHT22;18952;52.516;13.460;2023-05-07T10:36:43;14.80;99.90
32502;DHT22;18952;52.516;13.460;2023-05-07T10:39:10;14.90;99.90
32502;DHT22;18952;52.516;13.460;2023-05-07T10:41:38;14.90;99.90
32502;DHT22;18952;52.516;13.460;2023-05-07T10:44:05;15.00;99.90
32502;DHT22;18952;52.516;13.460;2023-05-07T10:46:32;15.10;99.90
32502;DHT22;18952;52.516;13.460;2023-05-07T10:51:39;15.20;99.90
32502;DHT22;18952;52.516;13.460;2023-05-07T10:56:42;15.30;99.90
32502;DHT22;18952;52.516;13.460;2023-05-07T11:02:09;15.30;99.90
32502;DHT22;18952;52.516;13.460;2023-05-07T11:04:36;15.40;99.90
32502;DHT22;18952;52.516;13.460;2023-05-07T11:07:25;15.40;99.90
32502;DHT22;18952;52.516;13.460;2023-05-07T11:09:57;15.50;99.90
32502;DHT22;18952;52.516;13.460;2023-05-07T11:15:11;15.60;99.90
32502;DHT22;18952;52.516;13.460;2023-05-07T11:17:58;15.70;99.90
32502;DHT22;18952;52.516;13.460;2023-05-07T11:26:00;16.10;99.90
32502;DHT22;18952;52.516;13.460;2023-05-07T11:28:29;16.20;99.90
32502;DHT22;18952;52.516;13.460;2023-05-07T11:30:57;16.30;99.90
32502;DHT22;18952;52.516;13.460;2023-05-07T11:33:24;16.30;99.90
32502;DHT22;18952;52.516;13.460;2023-05-07T11:35:53;16.40;99.90
32502;DHT22;18952;52.516;13.460;2023-05-07T11:38:20;16.60;99.90
32502;DHT22;18952;52.516;13.460;2023-05-07T11:43:17;16.50;99.90
32502;DHT22;18952;52.516;13.460;2023-05-07T11:45:50;16.60;99.90
32502;DHT22;18952;52.516;13.460;2023-05-07T11:48:19;16.60;99.90
32502;DHT22;18952;52.516;13.460;2023-05-07T11:51:06;16.60;99.50
32502;DHT22;18952;52.516;13.460;2023-05-07T11:53:42;16.70;99.10
32502;DHT22;18952;52.516;13.460;2023-05-07T11:56:14;16.60;99.50
32502;DHT22;18952;52.516;13.460;2023-05-07T11:58:43;16.60;99.00
32502;DHT22;18952;52.516;13.460;2023-05-07T12:01:12;16.70;99.10
32502;DHT22;18952;52.516;13.460;2023-05-07T12:03:41;16.90;98.40
32502;DHT22;18952;52.516;13.460;2023-05-07T12:06:08;17.00;97.70
32502;DHT22;18952;52.516;13.460;2023-05-07T12:08:41;17.00;97.60
32502;DHT22;18952;52.516;13.460;2023-05-07T12:11:16;17.00;97.20
32502;DHT22;18952;52.516;13.460;2023-05-07T12:13:43;16.90;97.20
32502;DHT22;18952;52.516;13.460;2023-05-07T12:16:11;16.90;97.40
32502;DHT22;18952;52.516;13.460;2023-05-07T12:18:38;16.90;96.80
32502;DHT22;18952;52.516;13.460;2023-05-07T12:21:10;16.90;97.30
32502;DHT22;18952;52.516;13.460;2023-05-07T12:23:47;16.90;97.00
32502;DHT22;18952;52.516;13.460;2023-05-07T12:26:14;17.00;96.50
32502;DHT22;18952;52.516;13.460;2023-05-07T12:28:43;16.90;96.30
32502;DHT22;18952;52.516;13.460;2023-05-07T12:31:10;17.20;97.20
32502;DHT22;18952;52.516;13.460;2023-05-07T12:33:42;17.50;95.90
32502;DHT22;18952;52.516;13.460;2023-05-07T12:36:15;17.80;94.20
32502;DHT22;18952;52.516;13.460;2023-05-07T12:38:44;18.10;93.90
32502;DHT22;18952;52.516;13.460;2023-05-07T12:41:11;18.50;93.40
32502;DHT22;18952;52.516;13.460;2023-05-07T12:43:42;18.60;93.10
32502;DHT22;18952;52.516;13.460;2023-05-07T12:46:20;18.50;92.20
32502;DHT22;18952;52.516;13.460;2023-05-07T12:48:48;18.70;91.70
32502;DHT22;18952;52.516;13.460;2023-05-07T12:51:15;18.90;91.30
32502;DHT22;18952;52.516;13.460;2023-05-07T12:54:07;19.00;91.20
32502;DHT22;18952;52.516;13.460;2023-05-07T12:56:39;19.00;89.50
32502;DHT22;18952;52.516;13.460;2023-05-07T12:59:07;18.80;89.50
32502;DHT22;18952;52.516;13.460;2023-05-07T13:01:34;18.70;89.00
32502;DHT22;18952;52.516;13.460;2023-05-07T13:04:16;19.00;89.80
32502;DHT22;18952;52.516;13.460;2023-05-07T13:06:44;19.20;88.90
32502;DHT22;18952;52.516;13.460;2023-05-07T13:09:13;19.40;87.80
32502;DHT22;18952;52.516;13.460;2023-05-07T13:11:41;19.40;84.80
32502;DHT22;18952;52.516;13.460;2023-05-07T13:14:16;19.60;83.10
32502;DHT22;18952;52.516;13.460;2023-05-07T13:16:43;20.00;82.00
32502;DHT22;18952;52.516;13.460;2023-05-07T13:19:13;20.20;80.60
32502;DHT22;18952;52.516;13.460;2023-05-07T13:21:40;20.20;79.60
32502;DHT22;18952;52.516;13.460;2023-05-07T13:24:07;19.90;81.10
32502;DHT22;18952;52.516;13.460;2023-05-07T13:26:34;19.70;81.10
32502;DHT22;18952;52.516;13.460;2023-05-07T13:29:01;19.80;80.70
32502;DHT22;18952;52.516;13.460;2023-05-07T13:31:28;20.10;79.40
32502;DHT22;18952;52.516;13.460;2023-05-07T13:33:55;20.10;79.10
32502;DHT22;18952;52.516;13.460;2023-05-07T13:36:22;19.90;78.80
32502;DHT22;18952;52.516;13.460;2023-05-07T13:38:50;19.60;78.00
32502;DHT22;18952;52.516;13.460;2023-05-07T13:41:18;19.20;79.40
32502;DHT22;18952;52.516;13.460;2023-05-07T13:43:45;19.00;79.40
32502;DHT22;18952;52.516;13.460;2023-05-07T13:46:15;19.30;79.00
32502;DHT22;18952;52.516;13.460;2023-05-07T13:48:42;19.60;77.90
32502;DHT22;18952;52.516;13.460;2023-05-07T13:51:09;19.70;77.20
32502;DHT22;18952;52.516;13.460;2023-05-07T13:53:36;19.60;77.00
32502;DHT22;18952;52.516;13.460;2023-05-07T13:56:06;19.50;77.00
32502;DHT22;18952;52.516;13.460;2023-05-07T13:58:32;19.40;77.40
32502;DHT22;18952;52.516;13.460;2023-05-07T14:00:59;19.30;77.30
32502;DHT22;18952;52.516;13.460;2023-05-07T14:03:27;19.10;77.60
32502;DHT22;18952;52.516;13.460;2023-05-07T14:05:54;19.00;77.70
32502;DHT22;18952;52.516;13.460;2023-05-07T14:08:21;18.80;79.00
32502;DHT22;18952;52.516;13.460;2023-05-07T14:10:48;18.90;78.70
32502;DHT22;18952;52.516;13.460;2023-05-07T14:13:15;19.10;78.30
32502;DHT22;18952;52.516;13.460;2023-05-07T14:15:42;19.40;78.30
32502;DHT22;18952;52.516;13.460;2023-05-07T14:18:11;19.60;76.70
32502;DHT22;18952;52.516;13.460;2023-05-07T14:20:38;19.60;75.30
32502;DHT22;18952;52.516;13.460;2023-05-07T14:23:04;19.50;76.30
32502;DHT22;18952;52.516;13.460;2023-05-07T14:25:34;19.40;76.10
32502;DHT22;18952;52.516;13.460;2023-05-07T14:28:01;19.10;75.90
32502;DHT22;18952;52.516;13.460;2023-05-07T14:30:30;18.90;76.00
32502;DHT22;18952;52.516;13.460;2023-05-07T14:32:57;19.00;76.90
32502;DHT22;18952;52.516;13.460;2023-05-07T14:35:24;19.50;78.50
32502;DHT22;18952;52.516;13.460;2023-05-07T14:37:51;19.90;77.10
32502;DHT22;18952;52.516;13.460;2023-05-07T14:40:17;20.10;78.10
32502;DHT22;18952;52.516;13.460;2023-05-07T14:42:44;19.90;76.30
32502;DHT22;18952;52.516;13.460;2023-05-07T14:45:11;19.90;75.50
32502;DHT22;18952;52.516;13.460;2023-05-07T14:47:38;20.10;76.30
32502;DHT22;18952;52.516;13.460;2023-05-07T14:50:05;20.50;79.30
32502;DHT22;18952;52.516;13.460;2023-05-07T14:52:32;21.00;76.80
32502;DHT22;18952;52.516;13.460;2023-05-07T14:55:00;21.40;74.90
32502;DHT22;18952;52.516;13.460;2023-05-07T14:57:26;21.70;73.50
32502;DHT22;18952;52.516;13.460;2023-05-07T14:59:59;22.00;75.10
32502;DHT22;18952;52.516;13.460;2023-05-07T15:02:31;22.30;74.40
32502;DHT22;18952;52.516;13.460;2023-05-07T15:04:59;22.10;70.10
32502;DHT22;18952;52.516;13.460;2023-05-07T15:07:29;21.80;70.30
32502;DHT22;18952;52.516;13.460;2023-05-07T15:09:59;21.80;68.50
32502;DHT22;18952;52.516;13.460;2023-05-07T15:12:28;21.70;68.70
32502;DHT22;18952;52.516;13.460;2023-05-07T15:14:57;21.60;68.80
32502;DHT22;18952;52.516;13.460;2023-05-07T15:17:24;21.40;68.00
32502;DHT22;18952;52.516;13.460;2023-05-07T15:19:51;20.90;69.30
32502;DHT22;18952;52.516;13.460;2023-05-07T15:22:20;20.60;69.30
32502;DHT22;18952;52.516;13.460;2023-05-07T15:24:47;20.40;69.80
32502;DHT22;18952;52.516;13.460;2023-05-07T15:27:14;20.40;70.00
32502;DHT22;18952;52.516;13.460;2023-05-07T15:29:40;20.50;69.80
32502;DHT22;18952;52.516;13.460;2023-05-07T15:32:07;20.70;69.70
32502;DHT22;18952;52.516;13.460;2023-05-07T15:34:34;20.80;69.30
32502;DHT22;18952;52.516;13.460;2023-05-07T15:37:01;20.80;69.30
32502;DHT22;18952;52.516;13.460;2023-05-07T15:39:30;20.90;69.00
32502;DHT22;18952;52.516;13.460;2023-05-07T15:41:58;20.50;67.30
32502;DHT22;18952;52.516;13.460;2023-05-07T15:44:26;20.10;68.00
32502;DHT22;18952;52.516;13.460;2023-05-07T15:46:54;19.90;68.50
32502;DHT22;18952;52.516;13.460;2023-05-07T15:49:22;19.70;68.30
32502;DHT22;18952;52.516;13.460;2023-05-07T15:51:52;19.70;69.10